Brea, CA (92823)

12:45 AM PST on February 09, 2016 (GMT -0800)
Kerrigan Ranch | | Change Station
CLOSE
Current Station
Personal Weather Station
Location: Yorba Linda, CA
Elevation: 699 ft
Nearby Weather Stations

Elev 699 ft 33.90 °N, 117.79 °W | Updated 1 minute ago

Clear
Clear
71.1 °F
Feels Like 73 °F
N
5.3
Wind Variable Wind from ENE

Today
High -- | Low -- °F
--% Chance of Precip.
Yesterday
High -- | Low -- °F
Precip. -- in
Pressure 30.14 in
Visibility 9.0 miles
Clouds Clear
Heat Index 73 °F
Dew Point 18 °F
Humidity 13%
Rainfall 0.00 in
Snow Depth Not available.
6:41 AM 5:29 PM
New Moon, 1% visible
METAR KCNO 090753Z AUTO 33003KT 9SM CLR 12/00 A3016 RMK AO2 SLP207 T01220000 402940122
Pressure 30.14 in
Visibility 9.0 miles
Clouds Clear
Heat Index 73 °F
Dew Point 18 °F
Humidity 13%
Rainfall 0.00 in
Snow Depth Not available.
6:41 AM 5:29 PM
New Moon, 1% visible
METAR KCNO 090753Z AUTO 33003KT 9SM CLR 12/00 A3016 RMK AO2 SLP207 T01220000 402940122

10-Day Weather Forecast

Almanac

Astronomy

Feb. 09, 2016 Rise Set
Actual Time
Civil Twilight
Nautical Twilight
Astronomical Twilight
Moon
Length of Visible Light
Length of Day
Tomorrow will be .
, % of the Moon is Illuminated

Today's Extremes

State Highs State Lows

Community

WunderPhotos

Upload Photos

1,891,571 photos uploaded!

WunderBlog® & News

Nearby

Air Quality

  Air Quality AQ Index Pollutant
Not available.

Snow Depth

Station Depth Elevation

Earthquake Activity

City Distance Mag. Time & Date
Minimum magnitude displayed is 2.5.

Coastal Water Temperatures

Place Temperature

Stations

Nearby Weather Stations

Station Location Temp. Windchill Dew Point Humidity Wind Precip. Elev Updated Type
                   

Watches & Warnings

There are currently no watches in effect.